createdAt,value
2018-10-17T00:02:28.155Z,17.98
2018-10-17T00:04:56.489Z,13.50
2018-10-17T00:07:24.831Z,17.37
2018-10-17T00:09:53.190Z,33.10
2018-10-17T00:12:21.545Z,15.20
2018-10-17T00:14:49.931Z,27.90
2018-10-17T00:17:19.067Z,27.40
2018-10-17T00:19:47.376Z,10.90
2018-10-17T00:22:15.715Z,16.53
2018-10-17T00:24:44.025Z,13.97
2018-10-17T00:27:12.396Z,22.93
2018-10-17T00:29:40.745Z,6.70
2018-10-17T00:32:09.084Z,22.47
2018-10-17T00:34:37.402Z,14.63
2018-10-17T00:37:05.970Z,16.80
2018-10-17T00:39:34.258Z,8.33
2018-10-17T00:42:02.671Z,30.33
2018-10-17T00:44:30.960Z,15.93
2018-10-17T00:46:59.312Z,18.53
2018-10-17T00:49:27.650Z,19.43
2018-10-17T00:51:55.979Z,15.67
2018-10-17T00:54:24.417Z,12.50
2018-10-17T00:56:52.882Z,23.83
2018-10-17T00:59:21.976Z,25.67
2018-10-17T01:01:50.565Z,10.53
2018-10-17T01:04:18.888Z,22.77
2018-10-17T01:06:47.348Z,23.67
2018-10-17T01:09:15.939Z,23.00
2018-10-17T01:11:44.344Z,18.27
2018-10-17T01:14:12.720Z,23.10
2018-10-17T01:16:41.122Z,17.57
2018-10-17T01:19:09.524Z,16.23
2018-10-17T01:21:38.150Z,7.07
2018-10-17T01:24:06.742Z,14.87
2018-10-17T01:26:35.114Z,8.70
2018-10-17T01:29:03.475Z,12.80
2018-10-17T01:31:31.962Z,19.32
2018-10-17T01:34:00.372Z,14.43
2018-10-17T01:36:28.811Z,13.90
2018-10-17T01:38:57.170Z,24.20
2018-10-17T01:41:25.573Z,24.37
2018-10-17T01:43:54.535Z,24.20
2018-10-17T01:46:22.867Z,30.70
2018-10-17T01:48:51.208Z,18.43
2018-10-17T01:51:19.527Z,8.43
2018-10-17T01:53:47.834Z,21.83
2018-10-17T01:56:16.165Z,31.43
2018-10-17T01:58:44.555Z,14.40
2018-10-17T02:01:12.971Z,16.07
2018-10-17T02:03:41.338Z,30.27
2018-10-17T02:06:09.669Z,28.95
2018-10-17T02:08:38.033Z,27.40
2018-10-17T02:11:06.457Z,20.03
2018-10-17T02:13:34.747Z,21.13
2018-10-17T02:16:03.090Z,18.87
2018-10-17T02:18:31.447Z,13.95
2018-10-17T02:20:59.793Z,11.37
2018-10-17T02:23:28.207Z,21.73
2018-10-17T02:25:57.520Z,16.40
2018-10-17T02:28:26.143Z,15.43
2018-10-17T02:30:54.503Z,18.10
2018-10-17T02:33:22.780Z,26.33
2018-10-17T02:35:51.151Z,28.30
2018-10-17T02:38:19.510Z,20.03
2018-10-17T02:40:47.821Z,21.83
2018-10-17T02:43:16.219Z,31.30
2018-10-17T02:45:44.467Z,10.07
2018-10-17T02:48:12.784Z,24.20
2018-10-17T02:50:41.245Z,20.67
2018-10-17T02:53:09.589Z,25.63
2018-10-17T02:55:37.949Z,18.10
2018-10-17T02:58:06.297Z,11.50
2018-10-17T03:00:34.607Z,11.50
2018-10-17T03:03:03.326Z,26.70
2018-10-17T03:05:31.621Z,17.30
2018-10-17T03:08:00.330Z,22.52
2018-10-17T03:10:28.664Z,30.23
2018-10-17T03:12:57.025Z,24.87
2018-10-17T03:15:25.289Z,14.67
2018-10-17T03:17:53.640Z,13.70
2018-10-17T03:20:21.974Z,24.53
2018-10-17T03:22:50.356Z,13.50
2018-10-17T03:25:18.761Z,14.50
2018-10-17T03:27:47.093Z,21.23
2018-10-17T03:30:15.432Z,20.37
2018-10-17T03:32:43.804Z,14.15
2018-10-17T03:35:12.152Z,10.90
2018-10-17T03:37:40.539Z,19.60
2018-10-17T03:40:08.898Z,17.98
2018-10-17T03:42:37.285Z,37.87
2018-10-17T03:45:06.300Z,20.13
2018-10-17T03:47:33.704Z,18.67
2018-10-17T03:50:02.644Z,11.10
2018-10-17T03:52:30.902Z,14.58
2018-10-17T03:54:59.265Z,19.40
2018-10-17T03:57:27.619Z,13.10
2018-10-17T03:59:55.931Z,13.53
2018-10-17T04:02:24.275Z,21.00
2018-10-17T04:04:52.670Z,23.60
2018-10-17T04:07:21.019Z,38.55
2018-10-17T04:09:49.342Z,21.37
2018-10-17T04:12:17.739Z,38.73
2018-10-17T04:14:46.108Z,19.90
2018-10-17T04:17:14.643Z,35.43
2018-10-17T04:19:42.973Z,22.27
2018-10-17T04:22:11.280Z,40.37
2018-10-17T04:24:39.586Z,9.60
2018-10-17T04:27:07.923Z,7.20
2018-10-17T04:29:36.284Z,19.20
2018-10-17T04:32:05.348Z,13.58
2018-10-17T04:34:33.716Z,18.50
2018-10-17T04:37:02.185Z,17.57
2018-10-17T04:39:30.484Z,17.00
2018-10-17T04:41:58.829Z,19.37
2018-10-17T04:44:27.198Z,18.97
2018-10-17T04:46:55.581Z,15.57
2018-10-17T04:49:23.886Z,17.60
2018-10-17T04:51:52.225Z,9.10
2018-10-17T04:54:20.723Z,17.40
2018-10-17T04:56:49.082Z,11.67
2018-10-17T04:59:17.529Z,11.70
2018-10-17T05:01:45.766Z,24.70
2018-10-17T05:04:14.179Z,27.40
2018-10-17T05:06:42.543Z,27.07
2018-10-17T05:09:11.261Z,14.60
2018-10-17T05:11:40.268Z,18.23
2018-10-17T05:14:08.630Z,23.70
2018-10-17T05:16:37.409Z,7.83
2018-10-17T05:19:05.892Z,16.97
2018-10-17T05:21:34.218Z,19.77
2018-10-17T05:24:02.601Z,17.67
2018-10-17T05:26:31.079Z,17.93
2018-10-17T05:28:59.544Z,25.80
2018-10-17T05:31:27.963Z,34.53
2018-10-17T05:33:56.435Z,19.82
2018-10-17T05:36:24.796Z,40.03
2018-10-17T05:38:53.228Z,24.55
2018-10-17T05:41:21.584Z,19.07
2018-10-17T05:43:49.935Z,34.43
2018-10-17T05:46:18.251Z,16.32
2018-10-17T05:48:46.596Z,14.17
2018-10-17T05:51:15.010Z,16.03
2018-10-17T05:53:46.247Z,47.53
2018-10-17T05:56:14.562Z,6.70
2018-10-17T05:58:43.019Z,13.63
2018-10-17T06:01:11.380Z,19.10
2018-10-17T06:03:40.725Z,34.20
2018-10-17T06:06:09.086Z,10.33
2018-10-17T06:08:37.443Z,27.07
2018-10-17T06:11:05.867Z,23.97
2018-10-17T06:13:34.198Z,15.73
2018-10-17T06:16:02.579Z,34.20
2018-10-17T06:18:30.906Z,16.93
2018-10-17T06:20:59.256Z,20.37
2018-10-17T06:23:27.721Z,16.23
2018-10-17T06:25:56.075Z,17.45
2018-10-17T06:28:24.449Z,7.40
2018-10-17T06:30:52.705Z,19.37
2018-10-17T06:33:21.013Z,43.30
2018-10-17T06:35:49.395Z,25.13
2018-10-17T06:38:17.815Z,21.12
2018-10-17T06:40:46.230Z,26.23
2018-10-17T06:43:14.645Z,53.67
2018-10-17T06:45:43.059Z,19.97
2018-10-17T06:48:11.406Z,15.23
2018-10-17T06:50:39.740Z,27.03
2018-10-17T06:53:08.132Z,14.27
2018-10-17T06:55:36.514Z,14.50
2018-10-17T06:58:04.857Z,30.27
2018-10-17T07:00:33.243Z,29.57
2018-10-17T07:03:01.670Z,15.35
2018-10-17T07:05:30.062Z,21.20
2018-10-17T07:07:58.402Z,22.90
2018-10-17T07:10:26.760Z,21.80
2018-10-17T07:12:55.176Z,29.63
2018-10-17T07:15:23.537Z,27.42
2018-10-17T07:17:51.823Z,22.90
2018-10-17T07:20:20.182Z,15.77
2018-10-17T07:22:48.746Z,16.53
2018-10-17T07:25:17.225Z,23.83
2018-10-17T07:27:45.572Z,21.40
2018-10-17T07:30:13.991Z,16.43
2018-10-17T07:32:42.291Z,32.33
2018-10-17T07:35:11.272Z,21.03
2018-10-17T07:37:39.617Z,20.47
2018-10-17T07:40:07.988Z,29.10
2018-10-17T07:42:36.450Z,28.03
2018-10-17T07:45:05.234Z,17.60
2018-10-17T07:47:33.805Z,22.73
2018-10-17T07:50:02.241Z,22.37
2018-10-17T07:52:30.630Z,17.30
2018-10-17T07:54:58.942Z,20.83
2018-10-17T07:57:27.295Z,26.17
2018-10-17T07:59:55.681Z,29.83
2018-10-17T08:02:25.118Z,28.50
2018-10-17T08:04:53.483Z,40.03
2018-10-17T08:07:21.782Z,26.60
2018-10-17T08:09:50.151Z,28.00
2018-10-17T08:12:18.878Z,18.70
2018-10-17T08:14:47.153Z,28.90
2018-10-17T08:17:15.526Z,24.77
2018-10-17T08:19:43.926Z,28.10
2018-10-17T08:22:14.543Z,24.33
2018-10-17T08:24:42.907Z,18.10
2018-10-17T08:27:11.286Z,21.57
2018-10-17T08:29:39.655Z,15.20
2018-10-17T08:32:08.576Z,41.83
2018-10-17T08:34:36.942Z,15.93
2018-10-17T08:37:05.931Z,18.00
2018-10-17T08:39:33.854Z,10.33
2018-10-17T08:42:02.236Z,25.37
2018-10-17T08:44:30.623Z,23.77
2018-10-17T08:47:04.276Z,23.10
2018-10-17T08:49:35.826Z,29.30
2018-10-17T08:52:04.387Z,35.53
2018-10-17T08:54:32.731Z,20.17
2018-10-17T08:57:01.131Z,17.17
2018-10-17T08:59:29.435Z,25.93
2018-10-17T09:01:57.869Z,21.30
2018-10-17T09:04:26.200Z,28.07
2018-10-17T09:06:54.587Z,27.73
2018-10-17T09:09:22.954Z,25.20
2018-10-17T09:11:51.369Z,32.70
2018-10-17T09:14:19.703Z,26.50
2018-10-17T09:16:48.135Z,19.50
2018-10-17T09:19:16.501Z,22.40
2018-10-17T09:21:45.162Z,18.80
2018-10-17T09:24:13.354Z,33.33
2018-10-17T09:26:42.056Z,15.47
2018-10-17T09:29:13.106Z,20.43
2018-10-17T09:31:41.730Z,19.93
2018-10-17T09:34:10.152Z,38.38
2018-10-17T09:36:38.503Z,28.60
2018-10-17T09:39:09.258Z,38.93
2018-10-17T09:41:37.583Z,28.77
2018-10-17T09:44:05.934Z,33.73
2018-10-17T09:46:34.382Z,24.55
2018-10-17T09:49:02.747Z,15.13
2018-10-17T09:51:31.070Z,17.83
2018-10-17T09:53:59.495Z,31.03
2018-10-17T09:56:27.929Z,15.60
2018-10-17T09:58:56.323Z,8.60
2018-10-17T10:01:30.046Z,8.33
2018-10-17T10:03:58.557Z,11.27
2018-10-17T10:06:26.942Z,9.53
2018-10-17T10:08:55.347Z,12.37
2018-10-17T10:11:23.752Z,10.00
2018-10-17T10:13:52.373Z,8.93
2018-10-17T10:16:20.904Z,7.70
2018-10-17T10:18:49.375Z,6.67
2018-10-17T10:21:17.755Z,9.53
2018-10-17T10:23:47.535Z,10.87
2018-10-17T10:26:16.025Z,9.30
2018-10-17T10:28:44.676Z,8.90
2018-10-17T10:31:13.146Z,9.20
2018-10-17T10:33:41.673Z,11.73
2018-10-17T10:36:10.025Z,8.60
2018-10-17T10:38:38.386Z,11.63
2018-10-17T10:41:07.163Z,7.62
2018-10-17T10:43:35.547Z,13.00
2018-10-17T10:46:04.050Z,6.93
2018-10-17T10:48:32.383Z,7.43
2018-10-17T10:51:00.776Z,8.40
2018-10-17T10:53:29.801Z,6.05
2018-10-17T10:55:58.203Z,6.90
2018-10-17T10:58:26.608Z,6.60
2018-10-17T11:00:54.971Z,6.27
2018-10-17T11:03:23.310Z,8.07
2018-10-17T11:05:51.666Z,6.53
2018-10-17T11:08:20.035Z,7.20
2018-10-17T11:10:48.488Z,5.73
2018-10-17T11:13:17.009Z,7.90
2018-10-17T11:15:46.049Z,8.80
2018-10-17T11:18:14.509Z,6.67
2018-10-17T11:20:43.316Z,6.53
2018-10-17T11:23:12.763Z,8.35
2018-10-17T11:25:41.121Z,6.27
2018-10-17T11:28:10.167Z,6.58
2018-10-17T11:30:38.683Z,6.78
2018-10-17T11:33:07.339Z,6.90
2018-10-17T11:35:37.303Z,7.97
2018-10-17T11:38:05.810Z,7.50
2018-10-17T11:40:34.478Z,12.20
2018-10-17T11:43:03.000Z,13.33
2018-10-17T11:45:31.433Z,12.40
2018-10-17T11:47:59.764Z,24.10
2018-10-17T11:50:28.180Z,10.00
2018-10-17T11:52:57.748Z,13.17
2018-10-17T11:55:26.615Z,7.10
2018-10-17T11:57:56.091Z,9.43
2018-10-17T12:00:24.700Z,17.57
2018-10-17T12:02:53.277Z,9.17
2018-10-17T12:05:22.105Z,8.23
2018-10-17T12:07:50.145Z,7.93
2018-10-17T12:10:18.594Z,8.80
2018-10-17T12:12:46.974Z,9.73
2018-10-17T12:15:16.109Z,7.53
2018-10-17T12:17:44.608Z,7.00
2018-10-17T12:20:14.121Z,7.33
2018-10-17T12:22:43.433Z,6.80
2018-10-17T12:25:12.386Z,13.33
2018-10-17T12:27:40.945Z,12.85
2018-10-17T12:30:13.175Z,9.93
2018-10-17T12:32:41.889Z,8.60
2018-10-17T12:35:10.583Z,7.03
2018-10-17T12:37:39.930Z,10.40
2018-10-17T12:40:09.676Z,8.00
2018-10-17T12:42:38.204Z,9.30
2018-10-17T12:45:07.783Z,9.53
2018-10-17T12:47:37.062Z,10.33
2018-10-17T12:50:06.322Z,8.33
2018-10-17T12:52:34.774Z,11.77
2018-10-17T12:55:03.151Z,8.10
2018-10-17T12:57:31.487Z,7.23
2018-10-17T13:00:00.148Z,7.17
2018-10-17T13:02:28.688Z,9.87
2018-10-17T13:04:57.203Z,6.37
2018-10-17T13:07:25.774Z,6.05
2018-10-17T13:09:54.143Z,8.67
2018-10-17T13:12:22.687Z,8.43
2018-10-17T13:14:51.017Z,6.40
2018-10-17T13:17:19.548Z,5.93
2018-10-17T13:19:47.939Z,6.95
2018-10-17T13:22:16.299Z,6.50
2018-10-17T13:24:44.898Z,9.77
2018-10-17T13:27:13.340Z,5.40
2018-10-17T13:29:41.647Z,6.13
2018-10-17T13:32:10.224Z,9.13
2018-10-17T13:34:38.555Z,6.87
2018-10-17T13:37:07.452Z,5.93
2018-10-17T13:39:35.741Z,6.40
2018-10-17T13:42:04.393Z,5.10
2018-10-17T13:44:33.168Z,6.17
2018-10-17T13:47:02.266Z,12.43
2018-10-17T13:49:31.055Z,8.43
2018-10-17T13:51:59.663Z,9.70
2018-10-17T13:54:28.201Z,5.80
2018-10-17T13:56:56.569Z,10.05
2018-10-17T13:59:25.015Z,5.50
2018-10-17T14:01:53.482Z,7.63
2018-10-17T14:04:21.778Z,6.47
2018-10-17T14:06:50.191Z,6.47
2018-10-17T14:09:18.572Z,7.80
2018-10-17T14:11:46.886Z,5.63
2018-10-17T14:14:15.235Z,11.37
2018-10-17T14:16:43.590Z,5.27
2018-10-17T14:19:13.062Z,7.60
2018-10-17T14:21:41.347Z,5.47
2018-10-17T14:24:09.821Z,9.83
2018-10-17T14:26:38.095Z,5.23
2018-10-17T14:29:06.432Z,4.73
2018-10-17T14:31:34.722Z,5.90
2018-10-17T14:34:03.159Z,5.50
2018-10-17T14:36:31.443Z,7.23
2018-10-17T14:39:00.031Z,6.83
2018-10-17T14:41:28.307Z,6.60
2018-10-17T14:43:56.659Z,6.37
2018-10-17T14:46:25.031Z,5.63
2018-10-17T14:48:53.410Z,4.77
2018-10-17T14:51:21.784Z,8.93
2018-10-17T14:53:50.240Z,13.90
2018-10-17T14:56:18.824Z,10.80
2018-10-17T14:58:47.052Z,10.10
2018-10-17T15:01:15.368Z,5.57
2018-10-17T15:03:43.819Z,9.73
2018-10-17T15:06:12.139Z,9.03
2018-10-17T15:08:40.539Z,6.73
2018-10-17T15:11:08.995Z,9.50
2018-10-17T15:13:37.358Z,13.07
2018-10-17T15:16:05.924Z,10.63
2018-10-17T15:18:34.407Z,8.15
2018-10-17T15:21:02.992Z,8.93
2018-10-17T15:23:31.331Z,10.57
2018-10-17T15:25:59.722Z,11.60
2018-10-17T15:28:28.347Z,8.68
2018-10-17T15:30:56.788Z,12.40
2018-10-17T15:33:25.147Z,12.57
2018-10-17T15:35:53.558Z,25.73
2018-10-17T15:38:22.522Z,11.47
2018-10-17T15:40:50.931Z,12.57
2018-10-17T15:43:19.885Z,19.35
2018-10-17T15:45:49.347Z,22.70
2018-10-17T15:48:17.803Z,31.37
2018-10-17T15:50:46.275Z,21.60
2018-10-17T15:53:14.846Z,22.83
2018-10-17T15:55:43.313Z,23.23
2018-10-17T15:58:11.863Z,12.20
2018-10-17T16:00:41.264Z,13.80
2018-10-17T16:03:09.787Z,21.20
2018-10-17T16:05:38.327Z,17.15
2018-10-17T16:08:06.848Z,18.57
2018-10-17T16:10:36.154Z,12.43
2018-10-17T16:13:05.132Z,18.73
2018-10-17T16:15:37.769Z,16.95
2018-10-17T16:18:06.741Z,10.37
2018-10-17T16:20:35.176Z,11.87
2018-10-17T16:23:03.785Z,10.43
2018-10-17T16:25:32.075Z,9.37
2018-10-17T16:28:00.538Z,16.20
2018-10-17T16:30:29.094Z,13.83
2018-10-17T16:32:57.482Z,10.00
2018-10-17T16:35:25.926Z,15.67
2018-10-17T16:37:54.349Z,10.30
2018-10-17T16:40:22.907Z,13.10
2018-10-17T16:42:51.283Z,8.33
2018-10-17T16:45:19.652Z,9.27
2018-10-17T16:47:48.074Z,14.30
2018-10-17T16:50:16.629Z,10.10
2018-10-17T16:52:44.980Z,8.67
2018-10-17T16:55:13.314Z,6.67
2018-10-17T16:57:41.731Z,10.43
2018-10-17T17:00:11.325Z,8.03
2018-10-17T17:02:39.662Z,13.30
2018-10-17T17:05:10.943Z,6.83
2018-10-17T17:07:39.372Z,10.43
2018-10-17T17:10:08.104Z,7.70
2018-10-17T17:12:36.499Z,8.60
2018-10-17T17:15:04.929Z,11.57
2018-10-17T17:17:33.343Z,7.70
2018-10-17T17:20:01.775Z,12.82
2018-10-17T17:22:30.163Z,9.50
2018-10-17T17:24:58.496Z,10.40
2018-10-17T17:27:27.240Z,8.30
2018-10-17T17:29:55.856Z,10.17
2018-10-17T17:32:24.193Z,8.70
2018-10-17T17:34:52.581Z,8.90
2018-10-17T17:37:21.999Z,19.23
2018-10-17T17:39:50.359Z,19.13
2018-10-17T17:42:18.943Z,18.40
2018-10-17T17:44:47.426Z,17.60
2018-10-17T17:47:15.830Z,12.07
2018-10-17T17:49:44.259Z,12.63
2018-10-17T17:52:12.650Z,17.55
2018-10-17T17:54:41.075Z,20.63
2018-10-17T17:57:09.403Z,12.13
2018-10-17T17:59:37.994Z,11.30
2018-10-17T18:02:06.676Z,16.23
2018-10-17T18:04:35.613Z,10.40
2018-10-17T18:07:04.231Z,10.17
2018-10-17T18:09:33.942Z,12.53
2018-10-17T18:12:02.693Z,11.90
2018-10-17T18:14:31.220Z,6.97
2018-10-17T18:17:00.556Z,8.08
2018-10-17T18:19:29.232Z,9.70
2018-10-17T18:21:57.944Z,7.83
2018-10-17T18:24:26.260Z,10.23
2018-10-17T18:26:54.714Z,10.33
2018-10-17T18:29:24.096Z,11.70
2018-10-17T18:31:52.524Z,10.97
2018-10-17T18:34:21.012Z,8.03
2018-10-17T18:36:49.474Z,7.80
2018-10-17T18:39:17.944Z,7.00
2018-10-17T18:41:46.348Z,8.57
2018-10-17T18:44:14.787Z,9.10
2018-10-17T18:46:43.182Z,10.50
2018-10-17T18:49:11.667Z,8.57
2018-10-17T18:51:40.264Z,6.50
2018-10-17T18:54:08.955Z,9.50
2018-10-17T18:56:37.565Z,11.17
2018-10-17T18:59:06.348Z,7.33
2018-10-17T19:01:34.894Z,8.20
2018-10-17T19:04:03.274Z,8.87
2018-10-17T19:06:31.611Z,8.73
2018-10-17T19:09:00.030Z,9.80
2018-10-17T19:11:28.423Z,9.20
2018-10-17T19:13:56.755Z,7.50
2018-10-17T19:16:25.127Z,7.63
2018-10-17T19:18:53.555Z,13.90
2018-10-17T19:21:22.011Z,12.20
2018-10-17T19:23:50.355Z,12.37
2018-10-17T19:26:19.110Z,7.63
2018-10-17T19:28:47.484Z,8.13
2018-10-17T19:31:15.927Z,8.15
2018-10-17T19:33:45.310Z,13.15
2018-10-17T19:36:13.751Z,7.10
2018-10-17T19:38:42.143Z,10.48
2018-10-17T19:41:10.623Z,6.40
2018-10-17T19:43:39.041Z,7.83
2018-10-17T19:46:07.566Z,10.57
2018-10-17T19:48:35.926Z,7.00
2018-10-17T19:51:05.495Z,8.07
2018-10-17T19:53:34.186Z,7.20
2018-10-17T19:56:02.716Z,7.23
2018-10-17T19:58:30.939Z,7.27
2018-10-17T20:00:59.310Z,7.47
2018-10-17T20:03:27.688Z,7.30
2018-10-17T20:05:56.146Z,7.47
2018-10-17T20:08:24.639Z,7.07
2018-10-17T20:10:53.048Z,6.87
2018-10-17T20:13:21.439Z,10.93
2018-10-17T20:15:50.099Z,7.87
2018-10-17T20:18:19.617Z,6.67
2018-10-17T20:20:47.995Z,8.05
2018-10-17T20:23:16.540Z,7.67
2018-10-17T20:25:45.064Z,7.27
2018-10-17T20:28:13.595Z,8.43
2018-10-17T20:30:42.037Z,8.20
2018-10-17T20:33:10.414Z,7.10
2018-10-17T20:35:38.749Z,6.83
2018-10-17T20:38:07.422Z,8.93
2018-10-17T20:40:35.783Z,7.63
2018-10-17T20:43:04.146Z,6.70
2018-10-17T20:45:32.598Z,7.43
2018-10-17T20:48:01.406Z,7.97
2018-10-17T20:50:29.846Z,7.37
2018-10-17T20:52:58.179Z,6.73
2018-10-17T20:55:26.563Z,11.75
2018-10-17T20:57:54.977Z,8.70
2018-10-17T21:00:23.273Z,8.43
2018-10-17T21:02:53.866Z,9.80
2018-10-17T21:05:22.237Z,6.87
2018-10-17T21:07:50.629Z,7.63
2018-10-17T21:10:18.966Z,7.00
2018-10-17T21:12:47.358Z,7.30
2018-10-17T21:15:15.678Z,9.47
2018-10-17T21:17:44.007Z,7.57
2018-10-17T21:20:12.502Z,6.97
2018-10-17T21:22:41.068Z,7.83
2018-10-17T21:25:09.525Z,8.10
2018-10-17T21:27:37.918Z,8.33
2018-10-17T21:30:07.530Z,7.90
2018-10-17T21:32:35.906Z,8.33
2018-10-17T21:35:04.531Z,7.73
2018-10-17T21:37:32.920Z,7.60
2018-10-17T21:40:01.327Z,8.93
2018-10-17T21:42:29.750Z,9.23
2018-10-17T21:44:58.331Z,7.22
2018-10-17T21:47:26.911Z,9.30
2018-10-17T21:49:55.255Z,6.30
2018-10-17T21:52:23.559Z,7.67
2018-10-17T21:54:52.072Z,7.35
2018-10-17T21:57:20.456Z,7.37
2018-10-17T21:59:48.886Z,7.70
2018-10-17T22:02:17.425Z,10.50
2018-10-17T22:04:46.777Z,7.60
2018-10-17T22:07:15.196Z,9.33
2018-10-17T22:09:43.556Z,10.40
2018-10-17T22:12:11.960Z,8.43
2018-10-17T22:14:40.262Z,8.10
2018-10-17T22:17:08.724Z,8.10
2018-10-17T22:19:38.040Z,8.97
2018-10-17T22:22:07.053Z,8.00
2018-10-17T22:24:35.465Z,7.97
2018-10-17T22:27:03.868Z,7.80
2018-10-17T22:29:32.209Z,6.97
2018-10-17T22:32:00.672Z,9.20
2018-10-17T22:34:29.186Z,8.63
2018-10-17T22:36:57.512Z,9.20
2018-10-17T22:39:25.847Z,11.00
2018-10-17T22:41:54.170Z,7.83
2018-10-17T22:44:22.490Z,7.90
2018-10-17T22:46:50.994Z,7.50
2018-10-17T22:49:19.302Z,9.00
2018-10-17T22:51:47.649Z,8.50
2018-10-17T22:54:16.015Z,8.10
2018-10-17T22:56:44.332Z,9.40
2018-10-17T22:59:12.693Z,10.17
2018-10-17T23:01:41.081Z,7.23
2018-10-17T23:04:09.747Z,9.07
2018-10-17T23:06:38.502Z,10.40
2018-10-17T23:09:12.276Z,8.80
2018-10-17T23:11:41.307Z,10.03
2018-10-17T23:14:10.158Z,7.17
2018-10-17T23:16:38.517Z,8.50
2018-10-17T23:19:07.704Z,8.63
2018-10-17T23:21:36.087Z,9.20
2018-10-17T23:24:04.510Z,11.60
2018-10-17T23:26:32.834Z,10.30
2018-10-17T23:29:01.267Z,10.03
2018-10-17T23:31:29.598Z,8.93
2018-10-17T23:33:57.978Z,10.33
2018-10-17T23:36:26.320Z,9.30
2018-10-17T23:38:55.026Z,9.53
2018-10-17T23:41:23.379Z,10.57
2018-10-17T23:43:51.819Z,11.13
2018-10-17T23:46:20.203Z,10.20
2018-10-17T23:48:48.571Z,11.30
2018-10-17T23:51:16.875Z,11.50
2018-10-17T23:53:45.338Z,10.77
2018-10-17T23:56:13.797Z,9.50
2018-10-17T23:58:42.129Z,10.83
